TFM - Tactical Decision Aid (Experimental) INFO Settings
ID: Runway Winds: CIG/VIS Threshold: METAR Board: Map:

KMKE - Milwaukee-General Mitchell Intl

Updated at: 2301 UTC 20 Feb 2018
Latest TAF at: 2234 UTC 20 Feb 2018

TAF Board

Time2252Z20/23Z21/00Z21/01Z21/02Z21/03Z21/04Z21/05Z21/06Z21/07Z21/08Z21/09Z21/10Z21/11Z
TypeOBSPRVLPRVLPRVLPRVLPRVLPRVLPRVLPRVLPRVLPRVLPRVLPRVLPRVL
VIS10>6>6>6>6>6>6>6>6>6>6>6>6>6
CIG107999404040505050505050
CoverOVCOVCOVCOVCOVCOVCOVCOVCBKNBKNBKNBKNBKNBKN
FltCatMVFRIFRIFRIFRIFRVFRVFRVFRVFRVFRVFRVFRVFRVFR
WX-RA-RAVCSHVCSHVCSH------------------
WDir270VRB290290290300300300310310310310310310
WSpd80888101010121212121212
WGst----------------------------
R01/19
XWnd8VRB888999101010101010
HWnd-1VRB222444777777
R07/25
XWnd2VRB555777101010101010
HWnd-8VRB-6-6-6-7-7-7-6-6-6-6-6-6
R13/31
XWnd-5VRB-3-3-3-2-2-2-0-0-0-0-0-0
HWnd-6VRB-7-7-7-10-10-10-12-12-12-12-12-12
TAF
KMKE 202234Z 2023/2124 00000KT P6SM -RA BKN007 BKN080 OVC090
  FM210000 29008KT P6SM VCSH BKN009 OVC025
  FM210300 30010KT P6SM SCT015 OVC040
  FM210600 31012KT P6SM BKN050
  FM211200 32012KT P6SM SCT250


METAR Board

Time20/12Z 20/13Z 20/14Z 20/15Z 20/16Z 20/17Z 20/18Z 20/19Z 20/20Z 20/21Z 20/22Z 20/23Z
VIS2.5 0.5 10 2.5 1 1.5 1.5 4 10 7 10 10
CIG19 3 9 39 23 3 3 23 48 95 7 10
CoverOVCOVCOVCOVCOVCOVCOVCOVCOVCOVCOVCOVC
FltCatIFRLIFRIFRIFRIFRLIFRLIFRMVFRVFRVFRIFRMVFR
WX-RA BR-RA BR--RA BRBRBRBRTSRA BR-RA-RA-RA-RA
WDir03403101301501301402502702600270
WSpd0 5 5 8 6 5 4 7 12 9 0 8
WGst-- -- -- -- -- -- -- -- -- -- -- --
METAR
KMKE 201152Z 00000KT 2 1/2SM -RA BR SCT010 BKN019 OVC070 06/05 A2979 RMK AO2 TWR VIS 3 SLP092 VIS E 1 VIS SE 1 1/4 P0003 60034 70113 T00560050 10056 20028 53004
KMKE 201304Z 34005KT 1/2SM -RA BR OVC003 06/05 A2983 RMK AO2 SFC VIS 2 1/2 P0000 T00560050
KMKE 201352Z 31005KT 10SM FEW005 OVC009 06/06 A2984 RMK AO2 RAE51 SLP109 P0001 T00610056
KMKE 201504Z 13008KT 2 1/2SM RA BR SCT009 BKN039 OVC070 07/06 A2984 RMK AO2 P0002 T00670056
KMKE 201552Z 15006KT 1SM BR SCT002 BKN023 OVC043 06/05 A2984 RMK AO2 SFC VIS 3 RAE43 SLP109 P0007 T00560050
KMKE 201652Z 13005KT 1 1/2SM BR OVC003 06/06 A2982 RMK AO2 SFC VIS 5 SLP103 T00610056
KMKE 201752Z 14004KT 1 1/2SM BR OVC003 07/06 A2980 RMK AO2 SFC VIS 4 RAB32E43 SLP095 P0000 60017 T00670061 10100 20044 57021
KMKE 201852Z 25007KT 4SM TSRA BR FEW007 BKN023CB OVC043 11/09 A2983 RMK AO2 PK WND 28027/1818 LTG DSNT S RAB12 TSB44 SLP105 OCNL LTGICCG S-SW TS S-SW MOV NE P0005 T01060094
KMKE 201952Z 27012KT 10SM -RA SCT008 BKN048 OVC090 11/10 A2980 RMK AO2 TSE07 SLP094 P0019 T01110100
KMKE 202052Z 26009KT 7SM -RA FEW008 FEW045 OVC095 08/08 A2982 RMK AO2 SLP102 P0004 60028 T00830078 55002
KMKE 202152Z 00000KT 10SM -RA BKN007 BKN075 OVC090 07/06 A2983 RMK AO2 SLP107 P0012 T00670056
KMKE 202252Z 27008KT 10SM -RA BKN010 OVC015 05/03 A2994 RMK AO2 SLP144 RAE15B46 P0000 T00500033

TAF/METAR Board Legend

Potential Impact
  None Marginal Slight Moderate High
Visibility (sm) >5 3≤X≤5 1≤X<3 <1
Ceiling (100 ft) >30 10≤X≤30 5≤X<10 <5
Wind Speed (kt) <10 10≤X<20 20≤X<30 ≥30
Wind Gust (kt) <15 15≤X<25 25≤X<35 ≥35
Weather No Wx Reported VCTS -TS,-FZRA TS,FZRA +TS,+FZRA




Page loaded:  23:01 UTC  |   03:01 PM Pacific  |   04:01 PM Mountain  |   05:01 PM Central  |   06:01 PM Eastern